sensor_id;sensor_type;location;lat;lon;timestamp;P1;durP1;ratioP1;P2;durP2;ratioP2
49812;SDS011;35706;52.100;5.056;2023-08-30T00:00:20;1.83;;;1.50;;
49812;SDS011;35706;52.100;5.056;2023-08-30T00:01:23;1.90;;;1.30;;
49812;SDS011;35706;52.100;5.056;2023-08-30T00:02:23;2.92;;;2.25;;
49812;SDS011;35706;52.100;5.056;2023-08-30T00:03:24;1.80;;;1.25;;
49812;SDS011;35706;52.100;5.056;2023-08-30T00:04:24;3.00;;;1.50;;
49812;SDS011;35706;52.100;5.056;2023-08-30T00:05:24;2.92;;;1.70;;
49812;SDS011;35706;52.100;5.056;2023-08-30T00:06:25;2.25;;;1.20;;
49812;SDS011;35706;52.100;5.056;2023-08-30T00:07:26;1.58;;;1.05;;
49812;SDS011;35706;52.100;5.056;2023-08-30T00:08:26;3.70;;;1.30;;
49812;SDS011;35706;52.100;5.056;2023-08-30T00:09:27;2.20;;;1.73;;
49812;SDS011;35706;52.100;5.056;2023-08-30T00:10:27;2.95;;;1.60;;
49812;SDS011;35706;52.100;5.056;2023-08-30T00:11:27;2.13;;;1.10;;
49812;SDS011;35706;52.100;5.056;2023-08-30T00:12:30;2.33;;;1.35;;
49812;SDS011;35706;52.100;5.056;2023-08-30T00:13:31;2.15;;;1.00;;
49812;SDS011;35706;52.100;5.056;2023-08-30T00:14:33;4.07;;;1.38;;
49812;SDS011;35706;52.100;5.056;2023-08-30T00:15:33;2.95;;;1.63;;
49812;SDS011;35706;52.100;5.056;2023-08-30T00:16:34;3.75;;;1.60;;
49812;SDS011;35706;52.100;5.056;2023-08-30T00:17:34;5.45;;;1.73;;
49812;SDS011;35706;52.100;5.056;2023-08-30T00:18:35;2.15;;;1.48;;
49812;SDS011;35706;52.100;5.056;2023-08-30T00:19:35;2.53;;;1.42;;
49812;SDS011;35706;52.100;5.056;2023-08-30T00:20:36;2.75;;;1.05;;
49812;SDS011;35706;52.100;5.056;2023-08-30T00:21:36;2.25;;;1.55;;
49812;SDS011;35706;52.100;5.056;2023-08-30T00:22:37;2.95;;;1.20;;
49812;SDS011;35706;52.100;5.056;2023-08-30T00:23:37;2.78;;;1.65;;
49812;SDS011;35706;52.100;5.056;2023-08-30T00:24:38;2.88;;;1.73;;
49812;SDS011;35706;52.100;5.056;2023-08-30T00:25:38;3.05;;;1.20;;
49812;SDS011;35706;52.100;5.056;2023-08-30T00:26:39;2.35;;;1.50;;
49812;SDS011;35706;52.100;5.056;2023-08-30T00:27:39;1.90;;;1.10;;
49812;SDS011;35706;52.100;5.056;2023-08-30T00:28:39;1.92;;;1.30;;
49812;SDS011;35706;52.100;5.056;2023-08-30T00:29:40;3.13;;;1.77;;
49812;SDS011;35706;52.100;5.056;2023-08-30T00:30:40;3.05;;;1.50;;
49812;SDS011;35706;52.100;5.056;2023-08-30T00:31:40;3.03;;;1.63;;
49812;SDS011;35706;52.100;5.056;2023-08-30T00:32:41;2.10;;;1.15;;
49812;SDS011;35706;52.100;5.056;2023-08-30T00:33:41;2.50;;;1.45;;
49812;SDS011;35706;52.100;5.056;2023-08-30T00:34:41;3.45;;;1.80;;
49812;SDS011;35706;52.100;5.056;2023-08-30T00:35:41;4.47;;;1.08;;
49812;SDS011;35706;52.100;5.056;2023-08-30T00:36:42;2.75;;;1.90;;
49812;SDS011;35706;52.100;5.056;2023-08-30T00:37:42;4.03;;;1.33;;
49812;SDS011;35706;52.100;5.056;2023-08-30T00:38:43;2.90;;;1.98;;
49812;SDS011;35706;52.100;5.056;2023-08-30T00:39:43;3.20;;;1.95;;
49812;SDS011;35706;52.100;5.056;2023-08-30T00:40:43;2.40;;;1.33;;
49812;SDS011;35706;52.100;5.056;2023-08-30T00:41:44;3.47;;;1.55;;
49812;SDS011;35706;52.100;5.056;2023-08-30T00:42:45;3.60;;;1.48;;
49812;SDS011;35706;52.100;5.056;2023-08-30T00:43:45;3.03;;;1.27;;
49812;SDS011;35706;52.100;5.056;2023-08-30T00:44:45;2.33;;;1.60;;
49812;SDS011;35706;52.100;5.056;2023-08-30T00:45:46;2.75;;;1.80;;
49812;SDS011;35706;52.100;5.056;2023-08-30T00:46:47;1.90;;;1.27;;
49812;SDS011;35706;52.100;5.056;2023-08-30T00:47:48;2.33;;;2.00;;
49812;SDS011;35706;52.100;5.056;2023-08-30T00:48:48;2.70;;;1.48;;
49812;SDS011;35706;52.100;5.056;2023-08-30T00:49:49;3.38;;;2.17;;
49812;SDS011;35706;52.100;5.056;2023-08-30T00:50:49;2.42;;;1.60;;
49812;SDS011;35706;52.100;5.056;2023-08-30T00:51:50;2.65;;;1.80;;
49812;SDS011;35706;52.100;5.056;2023-08-30T00:52:51;6.95;;;1.52;;
49812;SDS011;35706;52.100;5.056;2023-08-30T00:53:52;3.70;;;1.58;;
49812;SDS011;35706;52.100;5.056;2023-08-30T00:54:54;5.68;;;1.77;;
49812;SDS011;35706;52.100;5.056;2023-08-30T00:55:54;4.03;;;1.40;;
49812;SDS011;35706;52.100;5.056;2023-08-30T00:56:55;3.25;;;2.05;;
49812;SDS011;35706;52.100;5.056;2023-08-30T00:57:55;5.10;;;1.88;;
49812;SDS011;35706;52.100;5.056;2023-08-30T00:58:55;2.33;;;1.95;;
49812;SDS011;35706;52.100;5.056;2023-08-30T00:59:56;4.40;;;2.92;;
49812;SDS011;35706;52.100;5.056;2023-08-30T01:00:57;3.97;;;2.10;;
49812;SDS011;35706;52.100;5.056;2023-08-30T01:01:58;2.35;;;2.05;;
49812;SDS011;35706;52.100;5.056;2023-08-30T01:02:59;4.47;;;2.40;;
49812;SDS011;35706;52.100;5.056;2023-08-30T01:03:59;2.42;;;1.92;;
49812;SDS011;35706;52.100;5.056;2023-08-30T01:05:01;3.85;;;2.50;;
49812;SDS011;35706;52.100;5.056;2023-08-30T01:06:02;4.10;;;2.60;;
49812;SDS011;35706;52.100;5.056;2023-08-30T01:07:03;6.88;;;2.42;;
49812;SDS011;35706;52.100;5.056;2023-08-30T01:08:03;2.72;;;2.22;;
49812;SDS011;35706;52.100;5.056;2023-08-30T01:09:04;2.63;;;2.33;;
49812;SDS011;35706;52.100;5.056;2023-08-30T01:10:05;4.47;;;2.78;;
49812;SDS011;35706;52.100;5.056;2023-08-30T01:11:11;4.70;;;2.42;;
49812;SDS011;35706;52.100;5.056;2023-08-30T01:12:29;2.72;;;1.70;;
49812;SDS011;35706;52.100;5.056;2023-08-30T01:13:38;2.25;;;1.77;;
49812;SDS011;35706;52.100;5.056;2023-08-30T01:15:47;3.22;;;1.70;;
49812;SDS011;35706;52.100;5.056;2023-08-30T01:16:48;2.97;;;2.10;;
49812;SDS011;35706;52.100;5.056;2023-08-30T01:17:50;3.60;;;2.45;;
49812;SDS011;35706;52.100;5.056;2023-08-30T01:18:53;2.25;;;1.60;;
49812;SDS011;35706;52.100;5.056;2023-08-30T01:20:04;3.80;;;2.58;;
49812;SDS011;35706;52.100;5.056;2023-08-30T01:21:21;3.65;;;2.83;;
49812;SDS011;35706;52.100;5.056;2023-08-30T01:24:14;4.40;;;2.30;;
49812;SDS011;35706;52.100;5.056;2023-08-30T01:26:02;5.05;;;2.55;;
49812;SDS011;35706;52.100;5.056;2023-08-30T01:27:08;6.47;;;3.22;;
49812;SDS011;35706;52.100;5.056;2023-08-30T01:28:09;3.53;;;3.22;;
49812;SDS011;35706;52.100;5.056;2023-08-30T01:29:11;5.30;;;3.28;;
49812;SDS011;35706;52.100;5.056;2023-08-30T01:30:12;5.05;;;2.92;;
49812;SDS011;35706;52.100;5.056;2023-08-30T01:31:15;8.55;;;3.17;;
49812;SDS011;35706;52.100;5.056;2023-08-30T01:32:16;5.25;;;3.50;;
49812;SDS011;35706;52.100;5.056;2023-08-30T01:33:16;2.55;;;2.30;;
49812;SDS011;35706;52.100;5.056;2023-08-30T01:34:18;6.40;;;3.10;;
49812;SDS011;35706;52.100;5.056;2023-08-30T01:35:20;5.57;;;3.60;;
49812;SDS011;35706;52.100;5.056;2023-08-30T01:36:21;3.88;;;2.90;;
49812;SDS011;35706;52.100;5.056;2023-08-30T01:37:22;6.03;;;2.67;;
49812;SDS011;35706;52.100;5.056;2023-08-30T01:38:28;3.90;;;2.60;;
49812;SDS011;35706;52.100;5.056;2023-08-30T01:39:30;3.05;;;2.60;;
49812;SDS011;35706;52.100;5.056;2023-08-30T01:40:35;7.07;;;3.28;;
49812;SDS011;35706;52.100;5.056;2023-08-30T01:41:37;4.40;;;2.58;;
49812;SDS011;35706;52.100;5.056;2023-08-30T01:42:38;3.75;;;2.88;;
49812;SDS011;35706;52.100;5.056;2023-08-30T01:43:40;3.30;;;2.85;;
49812;SDS011;35706;52.100;5.056;2023-08-30T01:44:41;3.17;;;2.75;;
49812;SDS011;35706;52.100;5.056;2023-08-30T01:45:44;6.13;;;2.20;;
49812;SDS011;35706;52.100;5.056;2023-08-30T01:46:45;4.30;;;2.55;;
49812;SDS011;35706;52.100;5.056;2023-08-30T01:47:47;4.35;;;2.97;;
49812;SDS011;35706;52.100;5.056;2023-08-30T01:48:48;5.93;;;2.80;;
49812;SDS011;35706;52.100;5.056;2023-08-30T01:49:49;4.53;;;2.88;;
49812;SDS011;35706;52.100;5.056;2023-08-30T01:50:50;3.75;;;2.67;;
49812;SDS011;35706;52.100;5.056;2023-08-30T01:51:51;5.95;;;3.20;;
49812;SDS011;35706;52.100;5.056;2023-08-30T01:52:52;4.38;;;2.53;;
49812;SDS011;35706;52.100;5.056;2023-08-30T01:53:53;4.43;;;2.90;;
49812;SDS011;35706;52.100;5.056;2023-08-30T01:54:55;6.18;;;2.97;;
49812;SDS011;35706;52.100;5.056;2023-08-30T01:55:55;3.75;;;2.92;;
49812;SDS011;35706;52.100;5.056;2023-08-30T01:56:55;7.40;;;3.42;;
49812;SDS011;35706;52.100;5.056;2023-08-30T01:57:58;4.00;;;2.95;;
49812;SDS011;35706;52.100;5.056;2023-08-30T01:58:58;7.75;;;3.40;;
49812;SDS011;35706;52.100;5.056;2023-08-30T01:59:58;6.93;;;3.60;;
49812;SDS011;35706;52.100;5.056;2023-08-30T02:00:59;6.70;;;3.03;;
49812;SDS011;35706;52.100;5.056;2023-08-30T02:02:00;3.80;;;2.28;;
49812;SDS011;35706;52.100;5.056;2023-08-30T02:03:06;9.02;;;3.83;;
49812;SDS011;35706;52.100;5.056;2023-08-30T02:04:13;5.95;;;3.22;;
49812;SDS011;35706;52.100;5.056;2023-08-30T02:05:14;4.18;;;3.60;;
49812;SDS011;35706;52.100;5.056;2023-08-30T02:06:19;3.78;;;3.20;;
49812;SDS011;35706;52.100;5.056;2023-08-30T02:07:35;5.05;;;3.70;;
49812;SDS011;35706;52.100;5.056;2023-08-30T02:10:09;4.70;;;3.33;;
49812;SDS011;35706;52.100;5.056;2023-08-30T02:11:13;5.28;;;4.35;;
49812;SDS011;35706;52.100;5.056;2023-08-30T02:12:17;4.38;;;3.55;;
49812;SDS011;35706;52.100;5.056;2023-08-30T02:13:25;4.07;;;3.60;;
49812;SDS011;35706;52.100;5.056;2023-08-30T02:14:26;7.38;;;3.45;;
49812;SDS011;35706;52.100;5.056;2023-08-30T02:15:28;5.60;;;3.47;;
49812;SDS011;35706;52.100;5.056;2023-08-30T02:16:31;7.15;;;4.55;;
49812;SDS011;35706;52.100;5.056;2023-08-30T02:17:33;7.47;;;3.70;;
49812;SDS011;35706;52.100;5.056;2023-08-30T02:18:34;4.15;;;3.28;;
49812;SDS011;35706;52.100;5.056;2023-08-30T02:19:36;5.75;;;2.85;;
49812;SDS011;35706;52.100;5.056;2023-08-30T02:20:37;5.47;;;3.88;;
49812;SDS011;35706;52.100;5.056;2023-08-30T02:21:38;5.38;;;3.53;;
49812;SDS011;35706;52.100;5.056;2023-08-30T02:22:39;4.20;;;3.40;;
49812;SDS011;35706;52.100;5.056;2023-08-30T02:23:40;3.08;;;2.63;;
49812;SDS011;35706;52.100;5.056;2023-08-30T02:24:40;4.68;;;3.78;;
49812;SDS011;35706;52.100;5.056;2023-08-30T02:25:40;7.80;;;3.97;;
49812;SDS011;35706;52.100;5.056;2023-08-30T02:26:41;6.40;;;3.70;;
49812;SDS011;35706;52.100;5.056;2023-08-30T02:27:41;4.50;;;3.33;;
49812;SDS011;35706;52.100;5.056;2023-08-30T02:28:41;5.35;;;3.65;;
49812;SDS011;35706;52.100;5.056;2023-08-30T02:29:42;6.00;;;3.80;;
49812;SDS011;35706;52.100;5.056;2023-08-30T02:30:42;5.22;;;3.40;;
49812;SDS011;35706;52.100;5.056;2023-08-30T02:31:42;6.40;;;3.30;;
49812;SDS011;35706;52.100;5.056;2023-08-30T02:32:43;4.55;;;3.75;;
49812;SDS011;35706;52.100;5.056;2023-08-30T02:33:43;5.78;;;3.50;;
49812;SDS011;35706;52.100;5.056;2023-08-30T02:34:44;5.32;;;3.55;;
49812;SDS011;35706;52.100;5.056;2023-08-30T02:35:44;6.47;;;4.75;;
49812;SDS011;35706;52.100;5.056;2023-08-30T02:36:45;8.45;;;4.03;;
49812;SDS011;35706;52.100;5.056;2023-08-30T02:37:45;5.53;;;3.40;;
49812;SDS011;35706;52.100;5.056;2023-08-30T02:38:45;5.80;;;4.07;;
49812;SDS011;35706;52.100;5.056;2023-08-30T02:39:46;6.50;;;4.00;;
49812;SDS011;35706;52.100;5.056;2023-08-30T02:40:46;5.03;;;3.95;;
49812;SDS011;35706;52.100;5.056;2023-08-30T02:41:46;5.47;;;4.15;;
49812;SDS011;35706;52.100;5.056;2023-08-30T02:42:47;4.90;;;3.17;;
49812;SDS011;35706;52.100;5.056;2023-08-30T02:43:47;5.43;;;4.28;;
49812;SDS011;35706;52.100;5.056;2023-08-30T02:44:47;6.55;;;3.85;;
49812;SDS011;35706;52.100;5.056;2023-08-30T02:45:48;4.95;;;4.22;;
49812;SDS011;35706;52.100;5.056;2023-08-30T02:46:48;6.13;;;3.50;;
49812;SDS011;35706;52.100;5.056;2023-08-30T02:47:48;4.82;;;4.10;;
49812;SDS011;35706;52.100;5.056;2023-08-30T02:48:49;6.35;;;4.55;;
49812;SDS011;35706;52.100;5.056;2023-08-30T02:49:49;8.57;;;5.20;;
49812;SDS011;35706;52.100;5.056;2023-08-30T02:50:49;6.88;;;4.95;;
49812;SDS011;35706;52.100;5.056;2023-08-30T02:51:50;4.32;;;3.92;;
49812;SDS011;35706;52.100;5.056;2023-08-30T02:52:50;7.07;;;4.95;;
49812;SDS011;35706;52.100;5.056;2023-08-30T02:53:52;8.25;;;4.68;;
49812;SDS011;35706;52.100;5.056;2023-08-30T02:54:52;6.93;;;5.07;;
49812;SDS011;35706;52.100;5.056;2023-08-30T02:55:52;5.07;;;4.05;;
49812;SDS011;35706;52.100;5.056;2023-08-30T02:56:55;8.32;;;3.92;;
49812;SDS011;35706;52.100;5.056;2023-08-30T02:57:55;7.20;;;5.15;;
49812;SDS011;35706;52.100;5.056;2023-08-30T02:58:56;5.70;;;4.72;;
49812;SDS011;35706;52.100;5.056;2023-08-30T02:59:56;8.38;;;4.57;;
49812;SDS011;35706;52.100;5.056;2023-08-30T03:00:56;6.97;;;4.63;;
49812;SDS011;35706;52.100;5.056;2023-08-30T03:01:57;4.90;;;3.67;;
49812;SDS011;35706;52.100;5.056;2023-08-30T03:02:57;4.13;;;3.47;;
49812;SDS011;35706;52.100;5.056;2023-08-30T03:03:57;6.15;;;4.43;;
49812;SDS011;35706;52.100;5.056;2023-08-30T03:04:58;4.80;;;4.03;;
49812;SDS011;35706;52.100;5.056;2023-08-30T03:06:00;5.35;;;4.55;;
49812;SDS011;35706;52.100;5.056;2023-08-30T03:07:01;8.75;;;4.45;;
49812;SDS011;35706;52.100;5.056;2023-08-30T03:08:02;6.30;;;4.65;;
49812;SDS011;35706;52.100;5.056;2023-08-30T03:09:02;6.80;;;4.47;;
49812;SDS011;35706;52.100;5.056;2023-08-30T03:10:03;4.93;;;4.32;;
49812;SDS011;35706;52.100;5.056;2023-08-30T03:11:12;6.43;;;4.40;;
49812;SDS011;35706;52.100;5.056;2023-08-30T03:12:13;7.50;;;4.70;;
49812;SDS011;35706;52.100;5.056;2023-08-30T03:13:14;7.63;;;4.22;;
49812;SDS011;35706;52.100;5.056;2023-08-30T03:14:14;5.88;;;4.95;;
49812;SDS011;35706;52.100;5.056;2023-08-30T03:15:16;6.88;;;5.10;;
49812;SDS011;35706;52.100;5.056;2023-08-30T03:16:17;10.13;;;5.70;;
49812;SDS011;35706;52.100;5.056;2023-08-30T03:17:17;9.50;;;5.55;;
49812;SDS011;35706;52.100;5.056;2023-08-30T03:18:17;6.88;;;4.57;;
49812;SDS011;35706;52.100;5.056;2023-08-30T03:19:18;5.43;;;4.35;;
49812;SDS011;35706;52.100;5.056;2023-08-30T03:20:18;7.85;;;5.40;;
49812;SDS011;35706;52.100;5.056;2023-08-30T03:21:19;8.95;;;5.18;;
49812;SDS011;35706;52.100;5.056;2023-08-30T03:22:19;6.53;;;4.80;;
49812;SDS011;35706;52.100;5.056;2023-08-30T03:23:20;8.88;;;5.15;;
49812;SDS011;35706;52.100;5.056;2023-08-30T03:24:20;6.78;;;4.90;;
49812;SDS011;35706;52.100;5.056;2023-08-30T03:25:20;8.65;;;5.05;;
49812;SDS011;35706;52.100;5.056;2023-08-30T03:26:20;8.55;;;5.13;;
49812;SDS011;35706;52.100;5.056;2023-08-30T03:27:21;7.55;;;4.68;;
49812;SDS011;35706;52.100;5.056;2023-08-30T03:28:21;9.45;;;5.30;;
49812;SDS011;35706;52.100;5.056;2023-08-30T03:29:22;4.78;;;4.28;;
49812;SDS011;35706;52.100;5.056;2023-08-30T03:30:22;7.32;;;4.25;;
49812;SDS011;35706;52.100;5.056;2023-08-30T03:31:23;5.35;;;4.30;;
49812;SDS011;35706;52.100;5.056;2023-08-30T03:32:23;7.13;;;5.40;;
49812;SDS011;35706;52.100;5.056;2023-08-30T03:33:24;9.65;;;5.25;;
49812;SDS011;35706;52.100;5.056;2023-08-30T03:34:24;8.85;;;5.35;;
49812;SDS011;35706;52.100;5.056;2023-08-30T03:35:24;8.10;;;5.63;;
49812;SDS011;35706;52.100;5.056;2023-08-30T03:36:25;7.65;;;5.43;;
49812;SDS011;35706;52.100;5.056;2023-08-30T03:37:25;6.47;;;5.00;;
49812;SDS011;35706;52.100;5.056;2023-08-30T03:38:25;6.63;;;5.05;;
49812;SDS011;35706;52.100;5.056;2023-08-30T03:39:26;7.38;;;4.88;;
49812;SDS011;35706;52.100;5.056;2023-08-30T03:40:26;10.65;;;5.07;;
49812;SDS011;35706;52.100;5.056;2023-08-30T03:41:27;8.38;;;5.00;;
49812;SDS011;35706;52.100;5.056;2023-08-30T03:42:28;9.57;;;6.25;;
49812;SDS011;35706;52.100;5.056;2023-08-30T03:43:28;7.38;;;5.25;;
49812;SDS011;35706;52.100;5.056;2023-08-30T03:44:29;7.93;;;5.18;;
49812;SDS011;35706;52.100;5.056;2023-08-30T03:45:29;5.07;;;4.03;;
49812;SDS011;35706;52.100;5.056;2023-08-30T03:46:34;6.70;;;5.05;;
49812;SDS011;35706;52.100;5.056;2023-08-30T03:47:35;7.70;;;4.97;;
49812;SDS011;35706;52.100;5.056;2023-08-30T03:48:35;8.75;;;5.75;;
49812;SDS011;35706;52.100;5.056;2023-08-30T03:49:36;12.10;;;5.15;;
49812;SDS011;35706;52.100;5.056;2023-08-30T03:50:36;6.35;;;5.07;;
49812;SDS011;35706;52.100;5.056;2023-08-30T03:51:37;5.95;;;4.68;;
49812;SDS011;35706;52.100;5.056;2023-08-30T03:52:37;5.35;;;4.72;;
49812;SDS011;35706;52.100;5.056;2023-08-30T03:53:37;7.47;;;4.75;;
49812;SDS011;35706;52.100;5.056;2023-08-30T03:54:38;8.52;;;5.50;;
49812;SDS011;35706;52.100;5.056;2023-08-30T03:55:38;7.85;;;6.10;;
49812;SDS011;35706;52.100;5.056;2023-08-30T03:56:38;5.63;;;5.13;;
49812;SDS011;35706;52.100;5.056;2023-08-30T03:57:39;8.95;;;5.35;;
49812;SDS011;35706;52.100;5.056;2023-08-30T03:58:39;9.32;;;5.05;;
49812;SDS011;35706;52.100;5.056;2023-08-30T03:59:40;9.13;;;5.03;;
49812;SDS011;35706;52.100;5.056;2023-08-30T04:00:40;10.27;;;5.53;;
49812;SDS011;35706;52.100;5.056;2023-08-30T04:01:40;10.20;;;6.47;;
49812;SDS011;35706;52.100;5.056;2023-08-30T04:02:40;6.53;;;5.13;;
49812;SDS011;35706;52.100;5.056;2023-08-30T04:03:41;6.78;;;5.80;;
49812;SDS011;35706;52.100;5.056;2023-08-30T04:04:41;9.57;;;5.05;;
49812;SDS011;35706;52.100;5.056;2023-08-30T04:05:42;6.18;;;4.97;;
49812;SDS011;35706;52.100;5.056;2023-08-30T04:06:42;8.45;;;5.32;;
49812;SDS011;35706;52.100;5.056;2023-08-30T04:07:43;9.25;;;5.90;;
49812;SDS011;35706;52.100;5.056;2023-08-30T04:08:43;7.65;;;4.55;;
49812;SDS011;35706;52.100;5.056;2023-08-30T04:09:43;7.05;;;5.22;;
49812;SDS011;35706;52.100;5.056;2023-08-30T04:10:44;8.50;;;5.28;;
49812;SDS011;35706;52.100;5.056;2023-08-30T04:11:47;9.32;;;5.50;;
49812;SDS011;35706;52.100;5.056;2023-08-30T04:12:47;7.97;;;5.38;;
49812;SDS011;35706;52.100;5.056;2023-08-30T04:13:48;8.95;;;5.68;;
49812;SDS011;35706;52.100;5.056;2023-08-30T04:14:48;7.85;;;4.93;;
49812;SDS011;35706;52.100;5.056;2023-08-30T04:15:48;8.20;;;5.88;;
49812;SDS011;35706;52.100;5.056;2023-08-30T04:16:49;6.18;;;5.28;;
49812;SDS011;35706;52.100;5.056;2023-08-30T04:17:49;8.73;;;4.75;;
49812;SDS011;35706;52.100;5.056;2023-08-30T04:18:50;5.60;;;4.10;;
49812;SDS011;35706;52.100;5.056;2023-08-30T04:19:53;6.93;;;5.03;;
49812;SDS011;35706;52.100;5.056;2023-08-30T04:20:54;7.95;;;5.55;;
49812;SDS011;35706;52.100;5.056;2023-08-30T04:21:54;8.02;;;4.75;;
49812;SDS011;35706;52.100;5.056;2023-08-30T04:22:54;5.75;;;4.72;;
49812;SDS011;35706;52.100;5.056;2023-08-30T04:23:56;5.30;;;4.57;;
49812;SDS011;35706;52.100;5.056;2023-08-30T04:24:56;8.23;;;4.60;;
49812;SDS011;35706;52.100;5.056;2023-08-30T04:25:57;7.25;;;5.35;;
49812;SDS011;35706;52.100;5.056;2023-08-30T04:26:57;5.85;;;5.05;;
49812;SDS011;35706;52.100;5.056;2023-08-30T04:27:57;7.70;;;4.30;;
49812;SDS011;35706;52.100;5.056;2023-08-30T04:28:58;7.43;;;5.35;;
49812;SDS011;35706;52.100;5.056;2023-08-30T04:29:58;7.95;;;4.90;;
49812;SDS011;35706;52.100;5.056;2023-08-30T04:30:59;5.03;;;4.03;;
49812;SDS011;35706;52.100;5.056;2023-08-30T04:31:59;6.13;;;4.70;;
49812;SDS011;35706;52.100;5.056;2023-08-30T04:32:59;6.82;;;4.60;;
49812;SDS011;35706;52.100;5.056;2023-08-30T04:34:02;6.80;;;4.35;;
49812;SDS011;35706;52.100;5.056;2023-08-30T04:35:03;4.30;;;3.88;;
49812;SDS011;35706;52.100;5.056;2023-08-30T04:36:04;7.28;;;4.13;;
49812;SDS011;35706;52.100;5.056;2023-08-30T04:37:04;8.15;;;4.35;;
49812;SDS011;35706;52.100;5.056;2023-08-30T04:38:04;6.78;;;3.45;;
49812;SDS011;35706;52.100;5.056;2023-08-30T04:39:05;7.10;;;4.28;;
49812;SDS011;35706;52.100;5.056;2023-08-30T04:40:06;8.07;;;3.83;;
49812;SDS011;35706;52.100;5.056;2023-08-30T04:41:09;8.13;;;4.28;;
49812;SDS011;35706;52.100;5.056;2023-08-30T04:42:09;5.40;;;3.55;;
49812;SDS011;35706;52.100;5.056;2023-08-30T04:43:09;6.00;;;4.05;;
49812;SDS011;35706;52.100;5.056;2023-08-30T04:44:09;5.65;;;3.80;;
49812;SDS011;35706;52.100;5.056;2023-08-30T04:45:10;4.32;;;3.58;;
49812;SDS011;35706;52.100;5.056;2023-08-30T04:46:10;8.02;;;3.67;;
49812;SDS011;35706;52.100;5.056;2023-08-30T04:47:10;6.65;;;3.72;;
49812;SDS011;35706;52.100;5.056;2023-08-30T04:48:11;5.93;;;4.15;;
49812;SDS011;35706;52.100;5.056;2023-08-30T04:49:11;4.65;;;3.90;;
49812;SDS011;35706;52.100;5.056;2023-08-30T04:50:11;4.78;;;3.30;;
49812;SDS011;35706;52.100;5.056;2023-08-30T04:51:12;4.55;;;3.30;;
49812;SDS011;35706;52.100;5.056;2023-08-30T04:52:15;4.18;;;3.55;;
49812;SDS011;35706;52.100;5.056;2023-08-30T04:53:15;3.47;;;2.95;;
49812;SDS011;35706;52.100;5.056;2023-08-30T04:54:15;4.13;;;3.72;;
49812;SDS011;35706;52.100;5.056;2023-08-30T04:55:16;6.28;;;3.58;;
49812;SDS011;35706;52.100;5.056;2023-08-30T04:56:17;3.65;;;3.25;;
49812;SDS011;35706;52.100;5.056;2023-08-30T04:57:18;4.15;;;3.80;;
49812;SDS011;35706;52.100;5.056;2023-08-30T04:58:18;5.18;;;3.42;;
49812;SDS011;35706;52.100;5.056;2023-08-30T04:59:19;4.32;;;3.15;;
49812;SDS011;35706;52.100;5.056;2023-08-30T05:00:19;5.57;;;4.32;;
49812;SDS011;35706;52.100;5.056;2023-08-30T05:01:20;8.07;;;3.42;;
49812;SDS011;35706;52.100;5.056;2023-08-30T05:02:20;4.93;;;3.38;;
49812;SDS011;35706;52.100;5.056;2023-08-30T05:03:20;6.30;;;3.33;;
49812;SDS011;35706;52.100;5.056;2023-08-30T05:04:21;7.07;;;3.97;;
49812;SDS011;35706;52.100;5.056;2023-08-30T05:05:21;4.93;;;3.47;;
49812;SDS011;35706;52.100;5.056;2023-08-30T05:06:21;4.55;;;3.47;;
49812;SDS011;35706;52.100;5.056;2023-08-30T05:07:22;4.90;;;3.50;;
49812;SDS011;35706;52.100;5.056;2023-08-30T05:08:22;7.00;;;3.70;;
49812;SDS011;35706;52.100;5.056;2023-08-30T05:09:23;4.88;;;3.08;;
49812;SDS011;35706;52.100;5.056;2023-08-30T05:10:24;5.15;;;3.45;;
49812;SDS011;35706;52.100;5.056;2023-08-30T05:11:25;3.63;;;2.58;;
49812;SDS011;35706;52.100;5.056;2023-08-30T05:12:25;5.40;;;3.60;;
49812;SDS011;35706;52.100;5.056;2023-08-30T05:13:25;5.22;;;3.85;;
49812;SDS011;35706;52.100;5.056;2023-08-30T05:14:26;4.07;;;3.53;;
49812;SDS011;35706;52.100;5.056;2023-08-30T05:15:26;5.30;;;3.22;;
49812;SDS011;35706;52.100;5.056;2023-08-30T05:16:27;4.18;;;3.45;;
49812;SDS011;35706;52.100;5.056;2023-08-30T05:17:27;4.38;;;2.88;;
49812;SDS011;35706;52.100;5.056;2023-08-30T05:18:30;4.68;;;3.92;;
49812;SDS011;35706;52.100;5.056;2023-08-30T05:19:31;6.32;;;3.63;;
49812;SDS011;35706;52.100;5.056;2023-08-30T05:20:31;5.45;;;3.13;;
49812;SDS011;35706;52.100;5.056;2023-08-30T05:21:32;6.60;;;3.53;;
49812;SDS011;35706;52.100;5.056;2023-08-30T05:22:32;4.25;;;2.80;;
49812;SDS011;35706;52.100;5.056;2023-08-30T05:23:32;5.55;;;3.38;;
49812;SDS011;35706;52.100;5.056;2023-08-30T05:24:33;6.65;;;3.53;;
49812;SDS011;35706;52.100;5.056;2023-08-30T05:25:34;5.13;;;3.13;;
49812;SDS011;35706;52.100;5.056;2023-08-30T05:26:34;5.10;;;3.33;;
49812;SDS011;35706;52.100;5.056;2023-08-30T05:27:34;5.35;;;3.55;;
49812;SDS011;35706;52.100;5.056;2023-08-30T05:28:35;4.03;;;2.83;;
49812;SDS011;35706;52.100;5.056;2023-08-30T05:29:35;8.57;;;3.47;;
49812;SDS011;35706;52.100;5.056;2023-08-30T05:30:35;9.65;;;3.17;;
49812;SDS011;35706;52.100;5.056;2023-08-30T05:31:36;5.03;;;3.83;;
49812;SDS011;35706;52.100;5.056;2023-08-30T05:32:36;5.93;;;4.07;;
49812;SDS011;35706;52.100;5.056;2023-08-30T05:33:36;4.22;;;3.42;;
49812;SDS011;35706;52.100;5.056;2023-08-30T05:34:37;6.47;;;3.25;;
49812;SDS011;35706;52.100;5.056;2023-08-30T05:35:37;6.93;;;4.78;;
49812;SDS011;35706;52.100;5.056;2023-08-30T05:36:37;4.72;;;3.83;;
49812;SDS011;35706;52.100;5.056;2023-08-30T05:37:38;8.48;;;4.15;;
49812;SDS011;35706;52.100;5.056;2023-08-30T05:38:38;8.73;;;4.20;;
49812;SDS011;35706;52.100;5.056;2023-08-30T05:39:39;5.47;;;4.32;;
49812;SDS011;35706;52.100;5.056;2023-08-30T05:40:39;6.72;;;3.97;;
49812;SDS011;35706;52.100;5.056;2023-08-30T05:41:43;9.60;;;4.10;;
49812;SDS011;35706;52.100;5.056;2023-08-30T05:42:43;5.45;;;4.03;;
49812;SDS011;35706;52.100;5.056;2023-08-30T05:43:45;7.72;;;4.07;;
49812;SDS011;35706;52.100;5.056;2023-08-30T05:44:45;8.98;;;4.65;;
49812;SDS011;35706;52.100;5.056;2023-08-30T05:45:45;6.25;;;4.07;;
49812;SDS011;35706;52.100;5.056;2023-08-30T05:46:46;12.20;;;4.95;;
49812;SDS011;35706;52.100;5.056;2023-08-30T05:47:46;8.68;;;4.55;;
49812;SDS011;35706;52.100;5.056;2023-08-30T05:48:48;5.90;;;4.97;;
49812;SDS011;35706;52.100;5.056;2023-08-30T05:49:48;9.32;;;5.65;;
49812;SDS011;35706;52.100;5.056;2023-08-30T05:50:48;5.57;;;4.38;;
49812;SDS011;35706;52.100;5.056;2023-08-30T05:51:48;9.25;;;5.20;;
49812;SDS011;35706;52.100;5.056;2023-08-30T05:52:49;8.57;;;4.07;;
49812;SDS011;35706;52.100;5.056;2023-08-30T05:53:50;8.80;;;4.93;;
49812;SDS011;35706;52.100;5.056;2023-08-30T05:54:50;8.73;;;4.88;;
49812;SDS011;35706;52.100;5.056;2023-08-30T05:55:51;10.20;;;5.05;;
49812;SDS011;35706;52.100;5.056;2023-08-30T05:56:51;8.48;;;5.15;;
49812;SDS011;35706;52.100;5.056;2023-08-30T05:57:52;8.38;;;5.10;;
49812;SDS011;35706;52.100;5.056;2023-08-30T05:58:52;11.05;;;4.68;;
49812;SDS011;35706;52.100;5.056;2023-08-30T05:59:52;7.50;;;5.28;;
49812;SDS011;35706;52.100;5.056;2023-08-30T06:00:53;6.68;;;5.05;;
49812;SDS011;35706;52.100;5.056;2023-08-30T06:01:53;11.82;;;5.60;;
49812;SDS011;35706;52.100;5.056;2023-08-30T06:02:53;9.95;;;5.25;;
49812;SDS011;35706;52.100;5.056;2023-08-30T06:03:53;6.45;;;4.75;;
49812;SDS011;35706;52.100;5.056;2023-08-30T06:04:54;10.98;;;5.00;;
49812;SDS011;35706;52.100;5.056;2023-08-30T06:05:54;7.70;;;4.07;;
49812;SDS011;35706;52.100;5.056;2023-08-30T06:06:55;10.45;;;6.00;;
49812;SDS011;35706;52.100;5.056;2023-08-30T06:07:55;8.68;;;4.90;;
49812;SDS011;35706;52.100;5.056;2023-08-30T06:08:57;7.15;;;4.55;;
49812;SDS011;35706;52.100;5.056;2023-08-30T06:09:57;7.88;;;4.30;;
49812;SDS011;35706;52.100;5.056;2023-08-30T06:10:58;12.43;;;6.13;;
49812;SDS011;35706;52.100;5.056;2023-08-30T06:11:58;4.82;;;4.28;;
49812;SDS011;35706;52.100;5.056;2023-08-30T06:12:59;9.73;;;5.38;;